Puerto Francisco de Orellana, Ecuador

12:40 PM -05 on July 24, 2017 (GMT -0500)
GADPO - Hotel Jekannyty | | Change Station

Elev 886 ft 0.47 °S, 76.99 °W | Updated 30 seconds ago

Overcast
Overcast
75.3 °F
Feels Like 74 °F
N
4.0
Wind Variable Wind from NW
Gusts 6.0 mph

Today
High -- | Low -- °F
--% Chance of Precip.
Yesterday
High -- | Low -- °F
Precip. -- in
Pressure 30.06 in
Visibility 6.2 miles
Clouds Mostly Cloudy 1300 ft
Overcast 10000 ft
Heat Index 74 °F
Dew Point 72 °F
Humidity 91%
Rainfall 0.00 in
Snow Depth Not available.
6:12 AM 6:17 PM
New Moon, 2% visible
METAR SENL 241700Z 31005KT 9999 BKN013 OVC100 24/22 Q1018
Pressure 30.06 in
Visibility 6.2 miles
Clouds Mostly Cloudy 1300 ft
Overcast 10000 ft
Heat Index 74 °F
Dew Point 72 °F
Humidity 91%
Rainfall 0.00 in
Snow Depth Not available.
6:12 AM 6:17 PM
New Moon, 2% visible
METAR SENL 241700Z 31005KT 9999 BKN013 OVC100 24/22 Q1018

Get Severe Weather Alerts

Thanks for signing up!

Be on the lookout for a verification email in your inbox.

You'll start receiving the daily forecast at 6 AM.

×

10-Day Weather Forecast

No radar image for this location.
×

Almanac

Astronomy

Jul. 24, 2017 Rise Set
Actual Time
Civil Twilight
Nautical Twilight
Astronomical Twilight
Moon
Length of Visible Light
Length of Day
Tomorrow will be .
, % of the Moon is Illuminated

Today's Extremes

Country Highs Country Lows

Community

WunderPhotos

Category 6

Welcome to Category 6. This is the collective home for Weather Underground's featured writeups by Dr. Jeff Masters (right), Bob Henson (left), Chris Burt, and other regular contributors.

Nearby

Air Quality

  Air Quality AQ Index Pollutant
Not available.

Snow Depth

Station Depth Elevation

Earthquake Activity

City Distance Mag. Time & Date
Minimum magnitude displayed is 2.5.

Coastal Water Temperatures

Place Temperature

Stations

Nearby Weather Stations

Station Location Temp. Windchill Dew Point Humidity Wind Precip. Elev Updated Type